sensor_id;sensor_type;location;lat;lon;timestamp;P1;durP1;ratioP1;P2;durP2;ratioP2
51312;SDS011;37397;53.226;10.400;2023-08-21T00:00:29;8.02;;;3.10;;
51312;SDS011;37397;53.226;10.400;2023-08-21T00:02:55;6.78;;;3.10;;
51312;SDS011;37397;53.226;10.400;2023-08-21T00:05:22;6.57;;;3.25;;
51312;SDS011;37397;53.226;10.400;2023-08-21T00:07:49;6.65;;;3.08;;
51312;SDS011;37397;53.226;10.400;2023-08-21T00:10:17;8.02;;;3.20;;
51312;SDS011;37397;53.226;10.400;2023-08-21T00:12:44;7.50;;;3.42;;
51312;SDS011;37397;53.226;10.400;2023-08-21T00:15:11;7.00;;;2.83;;
51312;SDS011;37397;53.226;10.400;2023-08-21T00:17:37;5.80;;;2.85;;
51312;SDS011;37397;53.226;10.400;2023-08-21T00:20:04;8.05;;;2.78;;
51312;SDS011;37397;53.226;10.400;2023-08-21T00:22:31;6.00;;;3.00;;
51312;SDS011;37397;53.226;10.400;2023-08-21T00:24:58;8.75;;;3.20;;
51312;SDS011;37397;53.226;10.400;2023-08-21T00:27:24;7.38;;;3.30;;
51312;SDS011;37397;53.226;10.400;2023-08-21T00:29:53;7.32;;;3.35;;
51312;SDS011;37397;53.226;10.400;2023-08-21T00:32:20;6.05;;;2.80;;
51312;SDS011;37397;53.226;10.400;2023-08-21T00:34:46;8.15;;;3.30;;
51312;SDS011;37397;53.226;10.400;2023-08-21T00:37:13;5.85;;;3.13;;
51312;SDS011;37397;53.226;10.400;2023-08-21T00:39:39;5.53;;;3.33;;
51312;SDS011;37397;53.226;10.400;2023-08-21T00:42:06;6.22;;;2.97;;
51312;SDS011;37397;53.226;10.400;2023-08-21T00:44:33;7.15;;;3.30;;
51312;SDS011;37397;53.226;10.400;2023-08-21T00:47:00;5.82;;;3.17;;
51312;SDS011;37397;53.226;10.400;2023-08-21T00:49:27;7.50;;;3.03;;
51312;SDS011;37397;53.226;10.400;2023-08-21T00:51:54;6.35;;;3.25;;
51312;SDS011;37397;53.226;10.400;2023-08-21T00:54:20;7.05;;;2.60;;
51312;SDS011;37397;53.226;10.400;2023-08-21T00:56:47;7.60;;;3.47;;
51312;SDS011;37397;53.226;10.400;2023-08-21T00:59:17;7.75;;;3.40;;
51312;SDS011;37397;53.226;10.400;2023-08-21T01:01:43;5.68;;;2.90;;
51312;SDS011;37397;53.226;10.400;2023-08-21T01:04:10;6.85;;;3.25;;
51312;SDS011;37397;53.226;10.400;2023-08-21T01:06:37;5.90;;;2.75;;
51312;SDS011;37397;53.226;10.400;2023-08-21T01:09:10;5.88;;;2.90;;
51312;SDS011;37397;53.226;10.400;2023-08-21T01:14:23;7.07;;;3.13;;
51312;SDS011;37397;53.226;10.400;2023-08-21T01:16:56;6.15;;;2.67;;
51312;SDS011;37397;53.226;10.400;2023-08-21T01:19:41;6.35;;;3.20;;
51312;SDS011;37397;53.226;10.400;2023-08-21T01:22:09;4.88;;;2.85;;
51312;SDS011;37397;53.226;10.400;2023-08-21T01:24:36;7.97;;;3.10;;
51312;SDS011;37397;53.226;10.400;2023-08-21T01:27:03;6.25;;;3.05;;
51312;SDS011;37397;53.226;10.400;2023-08-21T01:29:29;6.35;;;2.80;;
51312;SDS011;37397;53.226;10.400;2023-08-21T01:34:51;5.80;;;3.08;;
51312;SDS011;37397;53.226;10.400;2023-08-21T01:37:18;6.32;;;2.92;;
51312;SDS011;37397;53.226;10.400;2023-08-21T01:39:48;5.30;;;2.80;;
51312;SDS011;37397;53.226;10.400;2023-08-21T01:42:14;7.40;;;3.22;;
51312;SDS011;37397;53.226;10.400;2023-08-21T01:44:41;7.47;;;3.20;;
51312;SDS011;37397;53.226;10.400;2023-08-21T01:47:07;6.03;;;2.75;;
51312;SDS011;37397;53.226;10.400;2023-08-21T01:49:36;4.57;;;2.80;;
51312;SDS011;37397;53.226;10.400;2023-08-21T01:52:02;5.88;;;3.13;;
51312;SDS011;37397;53.226;10.400;2023-08-21T01:54:29;5.60;;;2.80;;
51312;SDS011;37397;53.226;10.400;2023-08-21T01:56:57;6.95;;;2.83;;
51312;SDS011;37397;53.226;10.400;2023-08-21T01:59:24;7.13;;;2.95;;
51312;SDS011;37397;53.226;10.400;2023-08-21T02:01:50;5.00;;;2.72;;
51312;SDS011;37397;53.226;10.400;2023-08-21T02:04:18;6.15;;;2.90;;
51312;SDS011;37397;53.226;10.400;2023-08-21T02:06:44;8.63;;;3.05;;
51312;SDS011;37397;53.226;10.400;2023-08-21T02:09:11;6.45;;;2.80;;
51312;SDS011;37397;53.226;10.400;2023-08-21T02:11:37;6.68;;;2.80;;
51312;SDS011;37397;53.226;10.400;2023-08-21T02:14:04;6.95;;;2.83;;
51312;SDS011;37397;53.226;10.400;2023-08-21T02:16:31;5.78;;;2.90;;
51312;SDS011;37397;53.226;10.400;2023-08-21T02:18:58;4.88;;;2.78;;
51312;SDS011;37397;53.226;10.400;2023-08-21T02:21:24;6.90;;;2.95;;
51312;SDS011;37397;53.226;10.400;2023-08-21T02:23:51;7.57;;;3.10;;
51312;SDS011;37397;53.226;10.400;2023-08-21T02:26:18;6.88;;;2.63;;
51312;SDS011;37397;53.226;10.400;2023-08-21T02:28:46;5.43;;;2.70;;
51312;SDS011;37397;53.226;10.400;2023-08-21T02:31:13;4.85;;;2.90;;
51312;SDS011;37397;53.226;10.400;2023-08-21T02:33:39;5.90;;;2.70;;
51312;SDS011;37397;53.226;10.400;2023-08-21T02:36:06;6.82;;;3.05;;
51312;SDS011;37397;53.226;10.400;2023-08-21T02:38:33;5.45;;;2.88;;
51312;SDS011;37397;53.226;10.400;2023-08-21T02:41:00;5.57;;;2.67;;
51312;SDS011;37397;53.226;10.400;2023-08-21T02:43:26;3.92;;;2.50;;
51312;SDS011;37397;53.226;10.400;2023-08-21T02:45:53;5.93;;;3.00;;
51312;SDS011;37397;53.226;10.400;2023-08-21T02:48:20;4.75;;;3.05;;
51312;SDS011;37397;53.226;10.400;2023-08-21T02:50:47;5.03;;;2.83;;
51312;SDS011;37397;53.226;10.400;2023-08-21T02:53:15;7.15;;;2.97;;
51312;SDS011;37397;53.226;10.400;2023-08-21T02:55:41;5.22;;;2.60;;
51312;SDS011;37397;53.226;10.400;2023-08-21T02:58:11;7.13;;;2.63;;
51312;SDS011;37397;53.226;10.400;2023-08-21T03:00:38;4.75;;;2.72;;
51312;SDS011;37397;53.226;10.400;2023-08-21T03:03:05;6.15;;;2.55;;
51312;SDS011;37397;53.226;10.400;2023-08-21T03:05:32;3.72;;;2.40;;
51312;SDS011;37397;53.226;10.400;2023-08-21T03:07:58;3.33;;;2.42;;
51312;SDS011;37397;53.226;10.400;2023-08-21T03:10:25;5.40;;;2.83;;
51312;SDS011;37397;53.226;10.400;2023-08-21T03:12:53;7.05;;;2.45;;
51312;SDS011;37397;53.226;10.400;2023-08-21T03:15:20;6.47;;;2.63;;
51312;SDS011;37397;53.226;10.400;2023-08-21T03:17:47;6.75;;;2.83;;
51312;SDS011;37397;53.226;10.400;2023-08-21T03:20:13;4.60;;;2.72;;
51312;SDS011;37397;53.226;10.400;2023-08-21T03:22:40;4.95;;;2.85;;
51312;SDS011;37397;53.226;10.400;2023-08-21T03:25:07;6.53;;;2.80;;
51312;SDS011;37397;53.226;10.400;2023-08-21T03:27:34;5.97;;;2.97;;
51312;SDS011;37397;53.226;10.400;2023-08-21T03:30:06;5.38;;;2.60;;
51312;SDS011;37397;53.226;10.400;2023-08-21T03:32:36;5.45;;;2.85;;
51312;SDS011;37397;53.226;10.400;2023-08-21T03:35:03;6.25;;;3.13;;
51312;SDS011;37397;53.226;10.400;2023-08-21T03:37:30;6.63;;;2.83;;
51312;SDS011;37397;53.226;10.400;2023-08-21T03:39:57;5.63;;;3.10;;
51312;SDS011;37397;53.226;10.400;2023-08-21T03:42:23;7.30;;;3.10;;
51312;SDS011;37397;53.226;10.400;2023-08-21T03:44:50;7.40;;;3.03;;
51312;SDS011;37397;53.226;10.400;2023-08-21T03:47:16;6.93;;;2.90;;
51312;SDS011;37397;53.226;10.400;2023-08-21T03:49:51;6.75;;;3.05;;
51312;SDS011;37397;53.226;10.400;2023-08-21T03:52:20;5.28;;;3.25;;
51312;SDS011;37397;53.226;10.400;2023-08-21T03:54:47;4.95;;;2.70;;
51312;SDS011;37397;53.226;10.400;2023-08-21T03:57:14;5.07;;;2.70;;
51312;SDS011;37397;53.226;10.400;2023-08-21T03:59:40;5.85;;;2.85;;
51312;SDS011;37397;53.226;10.400;2023-08-21T04:02:07;7.60;;;2.90;;
51312;SDS011;37397;53.226;10.400;2023-08-21T04:04:34;5.90;;;2.97;;
51312;SDS011;37397;53.226;10.400;2023-08-21T04:07:01;7.13;;;2.80;;
51312;SDS011;37397;53.226;10.400;2023-08-21T04:09:27;6.32;;;2.83;;
51312;SDS011;37397;53.226;10.400;2023-08-21T04:11:54;6.63;;;3.10;;
51312;SDS011;37397;53.226;10.400;2023-08-21T04:14:20;6.60;;;2.88;;
51312;SDS011;37397;53.226;10.400;2023-08-21T04:16:47;7.25;;;3.08;;
51312;SDS011;37397;53.226;10.400;2023-08-21T04:19:14;6.38;;;2.53;;
51312;SDS011;37397;53.226;10.400;2023-08-21T04:21:40;7.50;;;3.17;;
51312;SDS011;37397;53.226;10.400;2023-08-21T04:24:07;6.70;;;2.95;;
51312;SDS011;37397;53.226;10.400;2023-08-21T04:26:34;6.82;;;2.67;;
51312;SDS011;37397;53.226;10.400;2023-08-21T04:29:00;6.85;;;2.78;;
51312;SDS011;37397;53.226;10.400;2023-08-21T04:31:28;5.22;;;3.13;;
51312;SDS011;37397;53.226;10.400;2023-08-21T04:33:55;9.07;;;3.17;;
51312;SDS011;37397;53.226;10.400;2023-08-21T04:36:22;6.93;;;3.13;;
51312;SDS011;37397;53.226;10.400;2023-08-21T04:38:49;8.65;;;3.45;;
51312;SDS011;37397;53.226;10.400;2023-08-21T04:41:16;7.97;;;2.95;;
51312;SDS011;37397;53.226;10.400;2023-08-21T04:43:44;7.93;;;2.85;;
51312;SDS011;37397;53.226;10.400;2023-08-21T04:46:11;6.40;;;3.03;;
51312;SDS011;37397;53.226;10.400;2023-08-21T04:48:40;6.85;;;2.88;;
51312;SDS011;37397;53.226;10.400;2023-08-21T04:51:07;6.93;;;3.22;;
51312;SDS011;37397;53.226;10.400;2023-08-21T04:53:33;8.90;;;3.10;;
51312;SDS011;37397;53.226;10.400;2023-08-21T04:56:01;5.00;;;2.85;;
51312;SDS011;37397;53.226;10.400;2023-08-21T04:58:30;8.43;;;3.20;;
51312;SDS011;37397;53.226;10.400;2023-08-21T05:00:57;4.32;;;2.45;;
51312;SDS011;37397;53.226;10.400;2023-08-21T05:03:24;7.10;;;2.85;;
51312;SDS011;37397;53.226;10.400;2023-08-21T05:05:54;6.78;;;2.90;;
51312;SDS011;37397;53.226;10.400;2023-08-21T05:08:25;5.60;;;2.78;;
51312;SDS011;37397;53.226;10.400;2023-08-21T05:10:55;7.35;;;2.97;;
51312;SDS011;37397;53.226;10.400;2023-08-21T05:13:24;7.72;;;2.80;;
51312;SDS011;37397;53.226;10.400;2023-08-21T05:15:52;7.38;;;2.63;;
51312;SDS011;37397;53.226;10.400;2023-08-21T05:18:22;6.82;;;2.78;;
51312;SDS011;37397;53.226;10.400;2023-08-21T05:20:49;5.38;;;2.88;;
51312;SDS011;37397;53.226;10.400;2023-08-21T05:23:17;7.65;;;3.45;;
51312;SDS011;37397;53.226;10.400;2023-08-21T05:25:47;5.75;;;2.90;;
51312;SDS011;37397;53.226;10.400;2023-08-21T05:28:15;8.73;;;3.40;;
51312;SDS011;37397;53.226;10.400;2023-08-21T05:30:41;10.80;;;3.38;;
51312;SDS011;37397;53.226;10.400;2023-08-21T05:33:08;6.22;;;2.67;;
51312;SDS011;37397;53.226;10.400;2023-08-21T05:35:35;7.30;;;3.00;;
51312;SDS011;37397;53.226;10.400;2023-08-21T05:38:03;5.63;;;2.72;;
51312;SDS011;37397;53.226;10.400;2023-08-21T05:40:30;8.07;;;3.50;;
51312;SDS011;37397;53.226;10.400;2023-08-21T05:42:57;7.80;;;3.00;;
51312;SDS011;37397;53.226;10.400;2023-08-21T05:45:24;9.10;;;3.33;;
51312;SDS011;37397;53.226;10.400;2023-08-21T05:47:50;6.68;;;3.03;;
51312;SDS011;37397;53.226;10.400;2023-08-21T05:50:17;9.40;;;3.35;;
51312;SDS011;37397;53.226;10.400;2023-08-21T05:52:43;9.38;;;3.38;;
51312;SDS011;37397;53.226;10.400;2023-08-21T05:55:10;8.27;;;2.90;;
51312;SDS011;37397;53.226;10.400;2023-08-21T05:57:37;8.75;;;3.22;;
51312;SDS011;37397;53.226;10.400;2023-08-21T06:00:04;7.38;;;2.85;;
51312;SDS011;37397;53.226;10.400;2023-08-21T06:02:40;9.95;;;3.80;;
51312;SDS011;37397;53.226;10.400;2023-08-21T06:05:14;11.02;;;4.07;;
51312;SDS011;37397;53.226;10.400;2023-08-21T06:07:42;7.60;;;2.97;;
51312;SDS011;37397;53.226;10.400;2023-08-21T06:10:09;7.55;;;3.03;;
51312;SDS011;37397;53.226;10.400;2023-08-21T06:12:41;9.65;;;3.33;;
51312;SDS011;37397;53.226;10.400;2023-08-21T06:15:08;7.03;;;3.25;;
51312;SDS011;37397;53.226;10.400;2023-08-21T06:17:35;10.20;;;3.17;;
51312;SDS011;37397;53.226;10.400;2023-08-21T06:20:03;7.53;;;2.80;;
51312;SDS011;37397;53.226;10.400;2023-08-21T06:22:32;6.25;;;3.05;;
51312;SDS011;37397;53.226;10.400;2023-08-21T06:24:59;12.48;;;2.90;;
51312;SDS011;37397;53.226;10.400;2023-08-21T06:27:25;10.05;;;3.20;;
51312;SDS011;37397;53.226;10.400;2023-08-21T06:29:52;9.32;;;3.20;;
51312;SDS011;37397;53.226;10.400;2023-08-21T06:32:18;6.93;;;2.90;;
51312;SDS011;37397;53.226;10.400;2023-08-21T06:34:47;12.63;;;3.47;;
51312;SDS011;37397;53.226;10.400;2023-08-21T06:37:13;13.48;;;3.58;;
51312;SDS011;37397;53.226;10.400;2023-08-21T06:39:40;6.80;;;2.65;;
51312;SDS011;37397;53.226;10.400;2023-08-21T06:42:07;10.05;;;2.85;;
51312;SDS011;37397;53.226;10.400;2023-08-21T06:44:40;7.50;;;2.63;;
51312;SDS011;37397;53.226;10.400;2023-08-21T06:47:06;11.73;;;3.38;;
51312;SDS011;37397;53.226;10.400;2023-08-21T06:49:33;10.48;;;2.72;;
51312;SDS011;37397;53.226;10.400;2023-08-21T06:52:00;13.27;;;3.17;;
51312;SDS011;37397;53.226;10.400;2023-08-21T06:54:26;11.65;;;3.40;;
51312;SDS011;37397;53.226;10.400;2023-08-21T06:56:53;9.52;;;2.88;;
51312;SDS011;37397;53.226;10.400;2023-08-21T06:59:19;9.55;;;2.75;;
51312;SDS011;37397;53.226;10.400;2023-08-21T07:01:45;11.68;;;3.22;;
51312;SDS011;37397;53.226;10.400;2023-08-21T07:04:12;11.43;;;2.78;;
51312;SDS011;37397;53.226;10.400;2023-08-21T07:06:40;13.25;;;2.80;;
51312;SDS011;37397;53.226;10.400;2023-08-21T07:09:06;10.98;;;2.90;;
51312;SDS011;37397;53.226;10.400;2023-08-21T07:11:33;11.40;;;2.63;;
51312;SDS011;37397;53.226;10.400;2023-08-21T07:13:59;11.55;;;2.80;;
51312;SDS011;37397;53.226;10.400;2023-08-21T07:16:26;12.40;;;2.83;;
51312;SDS011;37397;53.226;10.400;2023-08-21T07:18:53;11.63;;;2.70;;
51312;SDS011;37397;53.226;10.400;2023-08-21T07:21:19;13.73;;;2.90;;
51312;SDS011;37397;53.226;10.400;2023-08-21T07:23:59;10.73;;;2.67;;
51312;SDS011;37397;53.226;10.400;2023-08-21T07:26:26;9.88;;;2.90;;
51312;SDS011;37397;53.226;10.400;2023-08-21T07:28:52;12.57;;;2.80;;
51312;SDS011;37397;53.226;10.400;2023-08-21T07:31:19;14.63;;;3.13;;
51312;SDS011;37397;53.226;10.400;2023-08-21T07:33:46;9.85;;;2.47;;
51312;SDS011;37397;53.226;10.400;2023-08-21T07:36:13;11.52;;;2.50;;
51312;SDS011;37397;53.226;10.400;2023-08-21T07:38:43;12.63;;;2.97;;
51312;SDS011;37397;53.226;10.400;2023-08-21T07:41:12;11.50;;;3.03;;
51312;SDS011;37397;53.226;10.400;2023-08-21T07:43:40;8.65;;;2.80;;
51312;SDS011;37397;53.226;10.400;2023-08-21T07:46:08;13.18;;;2.72;;
51312;SDS011;37397;53.226;10.400;2023-08-21T07:48:38;11.32;;;2.78;;
51312;SDS011;37397;53.226;10.400;2023-08-21T07:51:05;12.05;;;3.40;;
51312;SDS011;37397;53.226;10.400;2023-08-21T07:53:32;10.70;;;2.55;;
51312;SDS011;37397;53.226;10.400;2023-08-21T07:56:01;9.48;;;2.97;;
51312;SDS011;37397;53.226;10.400;2023-08-21T07:58:31;9.35;;;2.67;;
51312;SDS011;37397;53.226;10.400;2023-08-21T08:01:01;11.60;;;3.10;;
51312;SDS011;37397;53.226;10.400;2023-08-21T08:03:28;10.50;;;3.08;;
51312;SDS011;37397;53.226;10.400;2023-08-21T08:05:54;13.07;;;3.20;;
51312;SDS011;37397;53.226;10.400;2023-08-21T08:08:21;11.80;;;3.15;;
51312;SDS011;37397;53.226;10.400;2023-08-21T08:10:48;9.07;;;2.92;;
51312;SDS011;37397;53.226;10.400;2023-08-21T08:13:14;15.23;;;4.18;;
51312;SDS011;37397;53.226;10.400;2023-08-21T08:15:41;14.05;;;3.40;;
51312;SDS011;37397;53.226;10.400;2023-08-21T08:18:14;9.27;;;3.45;;
51312;SDS011;37397;53.226;10.400;2023-08-21T08:20:40;14.00;;;3.45;;
51312;SDS011;37397;53.226;10.400;2023-08-21T08:23:07;11.77;;;3.22;;
51312;SDS011;37397;53.226;10.400;2023-08-21T08:25:34;7.97;;;2.97;;
51312;SDS011;37397;53.226;10.400;2023-08-21T08:28:00;11.68;;;3.15;;
51312;SDS011;37397;53.226;10.400;2023-08-21T08:30:27;8.43;;;2.85;;
51312;SDS011;37397;53.226;10.400;2023-08-21T08:32:54;9.68;;;3.17;;
51312;SDS011;37397;53.226;10.400;2023-08-21T08:35:20;8.07;;;2.63;;
51312;SDS011;37397;53.226;10.400;2023-08-21T08:37:47;11.32;;;2.80;;
51312;SDS011;37397;53.226;10.400;2023-08-21T08:40:14;10.55;;;2.90;;
51312;SDS011;37397;53.226;10.400;2023-08-21T08:42:41;12.93;;;3.30;;
51312;SDS011;37397;53.226;10.400;2023-08-21T08:45:08;12.52;;;3.10;;
51312;SDS011;37397;53.226;10.400;2023-08-21T08:47:35;9.73;;;2.92;;
51312;SDS011;37397;53.226;10.400;2023-08-21T08:50:05;13.57;;;3.33;;
51312;SDS011;37397;53.226;10.400;2023-08-21T08:52:37;9.00;;;2.85;;
51312;SDS011;37397;53.226;10.400;2023-08-21T08:55:06;10.55;;;3.00;;
51312;SDS011;37397;53.226;10.400;2023-08-21T08:57:33;8.23;;;2.63;;
51312;SDS011;37397;53.226;10.400;2023-08-21T09:00:01;10.60;;;2.97;;
51312;SDS011;37397;53.226;10.400;2023-08-21T09:02:29;8.35;;;2.50;;
51312;SDS011;37397;53.226;10.400;2023-08-21T09:04:56;8.20;;;2.63;;
51312;SDS011;37397;53.226;10.400;2023-08-21T09:07:23;7.72;;;2.60;;
51312;SDS011;37397;53.226;10.400;2023-08-21T09:09:49;11.20;;;2.72;;
51312;SDS011;37397;53.226;10.400;2023-08-21T09:12:18;12.90;;;3.17;;
51312;SDS011;37397;53.226;10.400;2023-08-21T09:14:46;9.70;;;2.72;;
51312;SDS011;37397;53.226;10.400;2023-08-21T09:17:13;8.10;;;3.00;;
51312;SDS011;37397;53.226;10.400;2023-08-21T09:19:40;8.95;;;2.40;;
51312;SDS011;37397;53.226;10.400;2023-08-21T09:22:11;7.65;;;2.30;;
51312;SDS011;37397;53.226;10.400;2023-08-21T09:24:39;6.88;;;2.40;;
51312;SDS011;37397;53.226;10.400;2023-08-21T09:27:13;9.05;;;2.60;;
51312;SDS011;37397;53.226;10.400;2023-08-21T09:29:41;8.93;;;2.70;;
51312;SDS011;37397;53.226;10.400;2023-08-21T09:32:08;5.47;;;2.25;;
51312;SDS011;37397;53.226;10.400;2023-08-21T09:34:37;11.13;;;2.80;;
51312;SDS011;37397;53.226;10.400;2023-08-21T09:37:05;8.52;;;2.22;;
51312;SDS011;37397;53.226;10.400;2023-08-21T09:39:34;7.05;;;2.20;;
51312;SDS011;37397;53.226;10.400;2023-08-21T09:42:08;8.52;;;2.45;;
51312;SDS011;37397;53.226;10.400;2023-08-21T09:44:35;7.05;;;2.13;;
51312;SDS011;37397;53.226;10.400;2023-08-21T09:47:09;7.78;;;2.40;;
51312;SDS011;37397;53.226;10.400;2023-08-21T09:49:38;8.23;;;2.60;;
51312;SDS011;37397;53.226;10.400;2023-08-21T09:52:06;7.53;;;2.30;;
51312;SDS011;37397;53.226;10.400;2023-08-21T09:54:34;11.30;;;2.45;;
51312;SDS011;37397;53.226;10.400;2023-08-21T09:57:01;7.68;;;2.05;;
51312;SDS011;37397;53.226;10.400;2023-08-21T09:59:29;9.27;;;2.78;;
51312;SDS011;37397;53.226;10.400;2023-08-21T10:01:58;7.55;;;1.98;;
51312;SDS011;37397;53.226;10.400;2023-08-21T10:04:27;8.20;;;2.30;;
51312;SDS011;37397;53.226;10.400;2023-08-21T10:06:56;4.38;;;1.90;;
51312;SDS011;37397;53.226;10.400;2023-08-21T10:09:23;7.47;;;2.25;;
51312;SDS011;37397;53.226;10.400;2023-08-21T10:11:52;7.80;;;2.50;;
51312;SDS011;37397;53.226;10.400;2023-08-21T10:14:21;8.70;;;2.33;;
51312;SDS011;37397;53.226;10.400;2023-08-21T10:16:52;5.18;;;1.95;;
51312;SDS011;37397;53.226;10.400;2023-08-21T10:19:19;4.30;;;1.98;;
51312;SDS011;37397;53.226;10.400;2023-08-21T10:21:47;5.68;;;1.75;;
51312;SDS011;37397;53.226;10.400;2023-08-21T10:24:28;10.48;;;2.47;;
51312;SDS011;37397;53.226;10.400;2023-08-21T10:27:00;6.15;;;2.03;;
51312;SDS011;37397;53.226;10.400;2023-08-21T10:29:27;5.75;;;2.00;;
51312;SDS011;37397;53.226;10.400;2023-08-21T10:32:03;5.20;;;1.65;;
51312;SDS011;37397;53.226;10.400;2023-08-21T10:34:36;4.38;;;1.83;;
51312;SDS011;37397;53.226;10.400;2023-08-21T10:37:05;5.35;;;1.88;;
51312;SDS011;37397;53.226;10.400;2023-08-21T10:42:09;5.93;;;2.13;;
51312;SDS011;37397;53.226;10.400;2023-08-21T10:47:23;5.85;;;2.20;;
51312;SDS011;37397;53.226;10.400;2023-08-21T10:49:53;4.93;;;2.08;;
51312;SDS011;37397;53.226;10.400;2023-08-21T10:52:22;6.00;;;2.00;;
51312;SDS011;37397;53.226;10.400;2023-08-21T10:54:51;5.05;;;1.92;;
51312;SDS011;37397;53.226;10.400;2023-08-21T10:57:19;6.35;;;2.10;;
51312;SDS011;37397;53.226;10.400;2023-08-21T10:59:50;6.65;;;1.80;;
51312;SDS011;37397;53.226;10.400;2023-08-21T11:02:21;5.57;;;2.00;;
51312;SDS011;37397;53.226;10.400;2023-08-21T11:04:48;5.68;;;1.80;;
51312;SDS011;37397;53.226;10.400;2023-08-21T11:07:16;7.18;;;2.20;;
51312;SDS011;37397;53.226;10.400;2023-08-21T11:09:43;13.13;;;2.28;;
51312;SDS011;37397;53.226;10.400;2023-08-21T11:12:10;5.30;;;2.00;;
51312;SDS011;37397;53.226;10.400;2023-08-21T11:14:40;4.72;;;1.80;;
51312;SDS011;37397;53.226;10.400;2023-08-21T11:17:07;6.35;;;1.73;;
51312;SDS011;37397;53.226;10.400;2023-08-21T11:19:35;5.30;;;1.77;;
51312;SDS011;37397;53.226;10.400;2023-08-21T11:22:03;5.90;;;2.10;;
51312;SDS011;37397;53.226;10.400;2023-08-21T11:24:42;5.97;;;2.13;;
51312;SDS011;37397;53.226;10.400;2023-08-21T11:27:11;7.35;;;2.28;;
51312;SDS011;37397;53.226;10.400;2023-08-21T11:29:46;6.35;;;1.95;;
51312;SDS011;37397;53.226;10.400;2023-08-21T11:32:15;5.80;;;1.80;;
51312;SDS011;37397;53.226;10.400;2023-08-21T11:34:50;7.22;;;1.80;;
51312;SDS011;37397;53.226;10.400;2023-08-21T11:37:20;6.88;;;1.88;;
51312;SDS011;37397;53.226;10.400;2023-08-21T11:39:53;5.75;;;1.80;;
51312;SDS011;37397;53.226;10.400;2023-08-21T11:42:21;6.85;;;1.83;;
51312;SDS011;37397;53.226;10.400;2023-08-21T11:44:50;5.90;;;1.75;;
51312;SDS011;37397;53.226;10.400;2023-08-21T11:47:18;5.20;;;1.98;;
51312;SDS011;37397;53.226;10.400;2023-08-21T11:49:47;3.88;;;1.85;;
51312;SDS011;37397;53.226;10.400;2023-08-21T11:52:21;4.35;;;1.88;;
51312;SDS011;37397;53.226;10.400;2023-08-21T11:57:20;6.80;;;2.42;;
51312;SDS011;37397;53.226;10.400;2023-08-21T11:59:50;4.70;;;1.90;;
51312;SDS011;37397;53.226;10.400;2023-08-21T12:02:19;5.15;;;1.80;;
51312;SDS011;37397;53.226;10.400;2023-08-21T12:04:56;4.82;;;1.45;;
51312;SDS011;37397;53.226;10.400;2023-08-21T12:07:28;4.82;;;1.80;;
51312;SDS011;37397;53.226;10.400;2023-08-21T12:09:55;6.00;;;2.10;;
51312;SDS011;37397;53.226;10.400;2023-08-21T12:12:22;4.03;;;1.80;;
51312;SDS011;37397;53.226;10.400;2023-08-21T12:14:49;6.93;;;1.98;;
51312;SDS011;37397;53.226;10.400;2023-08-21T12:17:16;5.57;;;2.05;;
51312;SDS011;37397;53.226;10.400;2023-08-21T12:19:43;7.63;;;2.15;;
51312;SDS011;37397;53.226;10.400;2023-08-21T12:22:09;3.58;;;1.92;;
51312;SDS011;37397;53.226;10.400;2023-08-21T12:24:36;5.75;;;2.00;;
51312;SDS011;37397;53.226;10.400;2023-08-21T12:27:03;4.57;;;1.67;;
51312;SDS011;37397;53.226;10.400;2023-08-21T12:29:30;3.10;;;1.58;;
51312;SDS011;37397;53.226;10.400;2023-08-21T12:31:57;2.28;;;1.48;;
51312;SDS011;37397;53.226;10.400;2023-08-21T12:34:23;2.58;;;1.50;;
51312;SDS011;37397;53.226;10.400;2023-08-21T12:36:50;4.13;;;1.50;;
51312;SDS011;37397;53.226;10.400;2023-08-21T12:39:17;5.55;;;1.77;;
51312;SDS011;37397;53.226;10.400;2023-08-21T12:41:45;2.97;;;1.70;;
51312;SDS011;37397;53.226;10.400;2023-08-21T12:44:12;6.20;;;1.60;;
51312;SDS011;37397;53.226;10.400;2023-08-21T12:46:39;5.28;;;1.88;;
51312;SDS011;37397;53.226;10.400;2023-08-21T12:49:05;5.65;;;1.88;;
51312;SDS011;37397;53.226;10.400;2023-08-21T12:51:32;5.90;;;1.50;;
51312;SDS011;37397;53.226;10.400;2023-08-21T12:53:59;5.50;;;1.90;;
51312;SDS011;37397;53.226;10.400;2023-08-21T12:56:25;5.40;;;1.52;;
51312;SDS011;37397;53.226;10.400;2023-08-21T12:58:52;4.43;;;1.63;;
51312;SDS011;37397;53.226;10.400;2023-08-21T13:01:18;3.30;;;1.55;;
51312;SDS011;37397;53.226;10.400;2023-08-21T13:03:46;6.05;;;1.90;;
51312;SDS011;37397;53.226;10.400;2023-08-21T13:06:13;4.35;;;1.70;;
51312;SDS011;37397;53.226;10.400;2023-08-21T13:08:40;4.65;;;1.67;;
51312;SDS011;37397;53.226;10.400;2023-08-21T13:11:07;5.22;;;1.60;;
51312;SDS011;37397;53.226;10.400;2023-08-21T13:13:33;5.57;;;1.92;;
51312;SDS011;37397;53.226;10.400;2023-08-21T13:16:00;3.53;;;1.55;;
51312;SDS011;37397;53.226;10.400;2023-08-21T13:18:27;3.17;;;1.45;;
51312;SDS011;37397;53.226;10.400;2023-08-21T13:20:54;4.05;;;1.75;;
51312;SDS011;37397;53.226;10.400;2023-08-21T13:23:20;5.50;;;1.77;;
51312;SDS011;37397;53.226;10.400;2023-08-21T13:25:47;7.45;;;2.08;;
51312;SDS011;37397;53.226;10.400;2023-08-21T13:28:13;4.50;;;2.10;;
51312;SDS011;37397;53.226;10.400;2023-08-21T13:30:40;4.05;;;1.80;;
51312;SDS011;37397;53.226;10.400;2023-08-21T13:33:06;4.40;;;1.58;;
51312;SDS011;37397;53.226;10.400;2023-08-21T13:35:33;5.07;;;1.50;;
51312;SDS011;37397;53.226;10.400;2023-08-21T13:38:00;6.32;;;2.22;;
51312;SDS011;37397;53.226;10.400;2023-08-21T13:40:27;10.95;;;2.17;;
51312;SDS011;37397;53.226;10.400;2023-08-21T13:42:54;2.78;;;1.55;;
51312;SDS011;37397;53.226;10.400;2023-08-21T13:45:22;5.13;;;1.60;;
51312;SDS011;37397;53.226;10.400;2023-08-21T13:47:49;4.03;;;1.65;;
51312;SDS011;37397;53.226;10.400;2023-08-21T13:50:16;3.67;;;1.55;;
51312;SDS011;37397;53.226;10.400;2023-08-21T13:52:45;4.57;;;1.80;;
51312;SDS011;37397;53.226;10.400;2023-08-21T13:55:12;6.20;;;1.60;;
51312;SDS011;37397;53.226;10.400;2023-08-21T13:57:40;5.28;;;1.80;;
51312;SDS011;37397;53.226;10.400;2023-08-21T14:00:08;2.25;;;1.52;;
51312;SDS011;37397;53.226;10.400;2023-08-21T14:02:39;3.83;;;1.75;;
51312;SDS011;37397;53.226;10.400;2023-08-21T14:05:07;4.72;;;1.70;;
51312;SDS011;37397;53.226;10.400;2023-08-21T14:07:35;8.23;;;1.85;;
51312;SDS011;37397;53.226;10.400;2023-08-21T14:10:03;3.47;;;1.55;;
51312;SDS011;37397;53.226;10.400;2023-08-21T14:12:31;3.08;;;1.60;;
51312;SDS011;37397;53.226;10.400;2023-08-21T14:14:58;5.75;;;1.67;;
51312;SDS011;37397;53.226;10.400;2023-08-21T14:17:27;3.95;;;1.60;;
51312;SDS011;37397;53.226;10.400;2023-08-21T14:19:54;5.93;;;1.90;;
51312;SDS011;37397;53.226;10.400;2023-08-21T14:22:21;4.93;;;1.50;;
51312;SDS011;37397;53.226;10.400;2023-08-21T14:24:47;4.05;;;1.60;;
51312;SDS011;37397;53.226;10.400;2023-08-21T14:27:14;7.07;;;1.90;;
51312;SDS011;37397;53.226;10.400;2023-08-21T14:29:43;5.97;;;2.20;;
51312;SDS011;37397;53.226;10.400;2023-08-21T14:32:10;5.20;;;1.95;;
51312;SDS011;37397;53.226;10.400;2023-08-21T14:34:37;6.47;;;1.90;;
51312;SDS011;37397;53.226;10.400;2023-08-21T14:37:05;7.28;;;1.77;;
51312;SDS011;37397;53.226;10.400;2023-08-21T14:39:32;5.97;;;1.65;;
51312;SDS011;37397;53.226;10.400;2023-08-21T14:41:59;6.18;;;1.88;;
51312;SDS011;37397;53.226;10.400;2023-08-21T14:44:25;5.68;;;1.95;;
51312;SDS011;37397;53.226;10.400;2023-08-21T14:46:52;3.88;;;1.70;;
51312;SDS011;37397;53.226;10.400;2023-08-21T14:49:24;2.10;;;1.55;;